createdAt,value
2023-05-09T00:01:24.634Z,15.40
2023-05-09T00:03:51.543Z,15.45
2023-05-09T00:06:19.465Z,15.45
2023-05-09T00:08:46.066Z,15.44
2023-05-09T00:11:12.760Z,15.50
2023-05-09T00:13:39.427Z,15.43
2023-05-09T00:16:06.523Z,15.43
2023-05-09T00:18:34.075Z,15.40
2023-05-09T00:21:03.039Z,15.35
2023-05-09T00:23:32.747Z,15.33
2023-05-09T00:25:59.637Z,15.27
2023-05-09T00:28:26.324Z,15.25
2023-05-09T00:30:53.236Z,15.23
2023-05-09T00:33:20.756Z,15.08
2023-05-09T00:35:47.436Z,14.90
2023-05-09T00:38:14.099Z,15.23
2023-05-09T00:40:40.717Z,15.37
2023-05-09T00:43:07.552Z,15.38
2023-05-09T00:45:34.436Z,15.46
2023-05-09T00:48:01.233Z,15.26
2023-05-09T00:50:28.141Z,15.68
2023-05-09T00:52:54.980Z,15.73
2023-05-09T00:55:22.219Z,15.78
2023-05-09T00:57:48.969Z,15.48
2023-05-09T01:00:16.627Z,15.53
2023-05-09T01:02:47.697Z,15.91
2023-05-09T01:05:15.398Z,15.81
2023-05-09T01:07:51.023Z,15.94
2023-05-09T01:10:33.631Z,15.82
2023-05-09T01:13:20.278Z,15.50
2023-05-09T01:16:12.661Z,15.87
2023-05-09T01:19:06.625Z,15.75
2023-05-09T01:21:35.127Z,15.71
2023-05-09T01:24:16.751Z,15.81
2023-05-09T01:27:01.793Z,15.84
2023-05-09T01:29:37.077Z,15.85
2023-05-09T01:32:08.524Z,15.41
2023-05-09T01:34:40.616Z,15.49
2023-05-09T01:37:08.320Z,15.84
2023-05-09T01:39:39.670Z,15.83
2023-05-09T01:42:09.631Z,15.68
2023-05-09T01:44:39.551Z,15.77
2023-05-09T01:47:07.780Z,15.20
2023-05-09T01:49:39.844Z,15.94
2023-05-09T01:52:11.334Z,15.91
2023-05-09T01:54:40.386Z,15.90
2023-05-09T01:57:08.631Z,15.73
2023-05-09T01:59:36.333Z,15.95
2023-05-09T02:02:03.847Z,15.80
2023-05-09T02:04:31.149Z,15.67
2023-05-09T02:06:58.781Z,15.80
2023-05-09T02:09:25.909Z,15.69
2023-05-09T02:11:52.689Z,15.64
2023-05-09T02:14:19.778Z,15.73
2023-05-09T02:16:46.432Z,15.68
2023-05-09T02:19:13.067Z,15.73
2023-05-09T02:21:39.812Z,15.75
2023-05-09T02:24:06.821Z,15.56
2023-05-09T02:26:36.222Z,15.87
2023-05-09T02:29:06.885Z,15.78
2023-05-09T02:31:34.716Z,15.77
2023-05-09T02:34:04.063Z,15.74
2023-05-09T02:36:32.623Z,15.83
2023-05-09T02:39:01.253Z,15.88
2023-05-09T02:41:30.168Z,15.84
2023-05-09T02:43:56.799Z,15.69
2023-05-09T02:46:24.433Z,15.90
2023-05-09T02:48:52.035Z,15.81
2023-05-09T02:51:18.683Z,15.56
2023-05-09T02:53:45.231Z,15.83
2023-05-09T02:56:12.003Z,15.79
2023-05-09T02:58:38.619Z,15.75
2023-05-09T03:01:05.954Z,15.73
2023-05-09T03:03:34.715Z,15.64
2023-05-09T03:06:03.928Z,15.48
2023-05-09T03:08:31.028Z,15.49
2023-05-09T03:10:58.168Z,15.41
2023-05-09T03:13:24.889Z,15.47
2023-05-09T03:15:51.662Z,15.42
2023-05-09T03:18:18.859Z,15.57
2023-05-09T03:20:45.605Z,15.52
2023-05-09T03:23:12.332Z,15.62
2023-05-09T03:25:38.943Z,15.61
2023-05-09T03:28:06.101Z,15.69
2023-05-09T03:30:32.667Z,15.74
2023-05-09T03:33:00.574Z,15.66
2023-05-09T03:35:27.176Z,15.65
2023-05-09T03:37:54.791Z,15.65
2023-05-09T03:40:21.556Z,15.67
2023-05-09T03:42:56.075Z,15.32
2023-05-09T03:48:38.110Z,15.69
2023-05-09T03:51:06.062Z,15.66
2023-05-09T03:53:36.827Z,15.72
2023-05-09T03:56:04.520Z,15.60
2023-05-09T03:58:38.703Z,15.70
2023-05-09T04:01:06.494Z,15.67
2023-05-09T04:03:33.637Z,15.69
2023-05-09T04:06:00.552Z,15.56
2023-05-09T04:08:33.143Z,15.57
2023-05-09T04:11:01.127Z,15.25
2023-05-09T04:13:29.883Z,15.25
2023-05-09T04:15:58.042Z,15.27
2023-05-09T04:18:25.942Z,15.50
2023-05-09T04:20:53.472Z,15.74
2023-05-09T04:23:20.608Z,15.32
2023-05-09T04:25:47.520Z,15.72
2023-05-09T04:28:14.085Z,15.62
2023-05-09T04:30:40.700Z,15.67
2023-05-09T04:33:07.287Z,15.64
2023-05-09T04:35:35.287Z,15.76
2023-05-09T04:38:02.074Z,15.77
2023-05-09T04:40:28.731Z,15.57
2023-05-09T04:42:59.033Z,15.77
2023-05-09T04:45:28.405Z,15.70
2023-05-09T04:47:57.143Z,15.82
2023-05-09T04:50:23.820Z,15.79
2023-05-09T04:52:50.505Z,15.35
2023-05-09T04:55:17.615Z,15.75
2023-05-09T04:57:47.346Z,15.80
2023-05-09T05:00:16.589Z,15.69
2023-05-09T05:02:44.987Z,15.74
2023-05-09T05:05:12.710Z,15.82
2023-05-09T05:07:42.364Z,15.87
2023-05-09T05:10:11.116Z,15.81
2023-05-09T05:12:39.986Z,15.93
2023-05-09T05:15:10.035Z,15.67
2023-05-09T05:17:37.876Z,16.12
2023-05-09T05:20:08.314Z,16.22
2023-05-09T05:22:35.864Z,16.48
2023-05-09T05:25:04.352Z,16.61
2023-05-09T05:27:31.920Z,16.61
2023-05-09T05:29:58.651Z,16.84
2023-05-09T05:32:25.773Z,16.37
2023-05-09T05:34:52.458Z,17.01
2023-05-09T05:37:19.293Z,17.14
2023-05-09T05:39:45.929Z,17.11
2023-05-09T05:42:12.714Z,17.24
2023-05-09T05:44:39.926Z,17.15
2023-05-09T05:47:06.687Z,17.27
2023-05-09T05:49:34.437Z,17.34
2023-05-09T05:52:01.300Z,17.34
2023-05-09T05:54:27.908Z,17.34
2023-05-09T05:56:54.649Z,17.39
2023-05-09T05:59:21.733Z,17.58
2023-05-09T06:01:48.797Z,17.41
2023-05-09T06:04:15.745Z,17.45
2023-05-09T06:06:42.526Z,17.52
2023-05-09T06:09:09.211Z,17.15
2023-05-09T06:11:35.811Z,17.53
2023-05-09T06:14:03.357Z,17.57
2023-05-09T06:16:30.204Z,17.53
2023-05-09T06:18:56.868Z,17.52
2023-05-09T06:21:24.499Z,17.65
2023-05-09T06:24:07.639Z,17.76
2023-05-09T06:26:36.800Z,17.84
2023-05-09T06:29:04.424Z,17.92
2023-05-09T06:31:31.080Z,18.07
2023-05-09T06:33:57.632Z,18.23
2023-05-09T06:36:24.238Z,18.17
2023-05-09T06:38:50.895Z,18.32
2023-05-09T06:41:17.469Z,18.49
2023-05-09T06:43:44.111Z,18.15
2023-05-09T06:46:10.608Z,18.77
2023-05-09T06:48:37.189Z,18.75
2023-05-09T06:51:03.864Z,19.01
2023-05-09T06:53:30.397Z,18.77
2023-05-09T06:55:57.118Z,19.04
2023-05-09T06:58:23.804Z,19.60
2023-05-09T07:00:51.368Z,19.64
2023-05-09T07:03:17.925Z,19.92
2023-05-09T07:05:44.644Z,20.13
2023-05-09T07:08:11.333Z,20.24
2023-05-09T07:10:38.930Z,20.07
2023-05-09T07:13:05.949Z,20.17
2023-05-09T07:15:41.408Z,20.05
2023-05-09T07:18:09.418Z,20.02
2023-05-09T07:20:36.406Z,19.93
2023-05-09T07:23:04.023Z,19.91
2023-05-09T07:25:30.758Z,19.80
2023-05-09T07:27:57.481Z,19.84
2023-05-09T07:30:24.150Z,19.86
2023-05-09T07:32:51.805Z,19.86
2023-05-09T07:35:19.330Z,19.79
2023-05-09T07:37:45.859Z,19.89
2023-05-09T07:40:12.858Z,19.75
2023-05-09T07:42:39.682Z,19.83
2023-05-09T07:45:06.980Z,19.98
2023-05-09T07:47:33.621Z,20.13
2023-05-09T07:50:00.290Z,19.84
2023-05-09T07:52:27.004Z,20.37
2023-05-09T07:54:54.502Z,20.42
2023-05-09T07:57:21.075Z,20.54
2023-05-09T07:59:47.623Z,20.68
2023-05-09T08:02:14.233Z,20.47
2023-05-09T08:04:41.479Z,20.80
2023-05-09T08:07:09.110Z,20.98
2023-05-09T08:09:35.856Z,20.91
2023-05-09T08:12:02.522Z,20.95
2023-05-09T08:14:29.726Z,20.91
2023-05-09T08:16:56.219Z,20.70
2023-05-09T08:19:25.873Z,20.78
2023-05-09T08:21:53.239Z,20.76
2023-05-09T08:24:20.187Z,20.56
2023-05-09T08:26:47.733Z,20.38
2023-05-09T08:29:14.649Z,20.47
2023-05-09T08:31:41.338Z,20.30
2023-05-09T08:34:07.900Z,19.77
2023-05-09T08:36:34.501Z,19.98
2023-05-09T08:39:01.081Z,19.90
2023-05-09T08:41:30.827Z,20.20
2023-05-09T08:43:57.513Z,19.95
2023-05-09T08:46:36.881Z,20.29
2023-05-09T08:49:06.155Z,19.74
2023-05-09T08:51:33.226Z,19.55
2023-05-09T08:54:00.204Z,19.30
2023-05-09T08:56:27.068Z,19.30
2023-05-09T08:58:55.616Z,18.90
2023-05-09T09:01:23.452Z,19.01
2023-05-09T09:03:50.814Z,18.95
2023-05-09T09:06:18.036Z,19.23
2023-05-09T09:08:46.517Z,19.01
2023-05-09T09:11:17.297Z,19.26
2023-05-09T09:13:46.082Z,19.05
2023-05-09T09:16:20.561Z,19.82
2023-05-09T09:18:48.311Z,19.80
2023-05-09T09:21:19.137Z,20.01
2023-05-09T09:23:47.547Z,19.96
2023-05-09T09:26:14.499Z,20.04
2023-05-09T09:28:42.030Z,19.57
2023-05-09T09:31:25.422Z,20.17
2023-05-09T09:33:52.143Z,20.21
2023-05-09T09:36:32.500Z,20.04
2023-05-09T09:39:00.702Z,19.51
2023-05-09T09:41:35.347Z,19.72
2023-05-09T09:44:09.171Z,19.72
2023-05-09T09:46:41.360Z,19.44
2023-05-09T09:49:10.420Z,19.73
2023-05-09T09:51:36.995Z,19.45
2023-05-09T09:54:06.047Z,19.68
2023-05-09T09:56:43.913Z,19.75
2023-05-09T09:59:13.376Z,19.75
2023-05-09T10:02:00.784Z,19.96
2023-05-09T10:04:33.464Z,19.95
2023-05-09T10:07:03.536Z,19.73
2023-05-09T10:09:30.135Z,19.79
2023-05-09T10:11:58.947Z,19.81
2023-05-09T10:14:26.610Z,19.65
2023-05-09T10:16:57.941Z,19.61
2023-05-09T10:19:27.187Z,19.95
2023-05-09T10:22:02.103Z,19.83
2023-05-09T10:24:35.394Z,19.77
2023-05-09T10:27:11.706Z,19.55
2023-05-09T10:29:46.174Z,19.38
2023-05-09T10:32:23.219Z,19.10
2023-05-09T10:34:54.486Z,18.59
2023-05-09T10:37:22.116Z,18.28
2023-05-09T10:39:53.441Z,18.42
2023-05-09T10:42:20.421Z,18.28
2023-05-09T10:44:48.057Z,18.36
2023-05-09T10:47:15.630Z,18.35
2023-05-09T10:49:44.297Z,18.29
2023-05-09T10:52:10.944Z,17.96
2023-05-09T10:54:37.799Z,18.23
2023-05-09T10:57:08.862Z,18.34
2023-05-09T10:59:36.202Z,18.40
2023-05-09T11:02:03.727Z,18.43
2023-05-09T11:04:32.451Z,18.29
2023-05-09T11:07:00.844Z,18.18
2023-05-09T11:09:38.148Z,17.89
2023-05-09T11:12:04.702Z,17.52
2023-05-09T11:14:37.244Z,17.38
2023-05-09T11:17:05.283Z,17.31
2023-05-09T11:19:56.362Z,17.32
2023-05-09T11:22:32.090Z,17.25
2023-05-09T11:25:07.626Z,17.08
2023-05-09T11:27:39.570Z,16.99
2023-05-09T11:30:08.387Z,16.86
2023-05-09T11:32:44.101Z,16.83
2023-05-09T11:35:15.309Z,17.02
2023-05-09T11:38:00.756Z,17.19
2023-05-09T11:40:29.110Z,17.39
2023-05-09T11:42:58.578Z,17.76
2023-05-09T11:45:29.923Z,17.74
2023-05-09T11:47:59.418Z,17.99
2023-05-09T11:50:25.986Z,18.09
2023-05-09T11:52:53.558Z,17.46
2023-05-09T11:55:30.270Z,18.04
2023-05-09T11:57:57.230Z,18.13
2023-05-09T12:00:25.955Z,17.99
2023-05-09T12:02:53.518Z,18.03
2023-05-09T12:05:22.809Z,17.64
2023-05-09T12:07:50.963Z,18.13
2023-05-09T12:10:25.523Z,18.13
2023-05-09T12:12:55.313Z,17.95
2023-05-09T12:15:22.378Z,18.09
2023-05-09T12:18:04.983Z,18.06
2023-05-09T12:20:41.002Z,18.06
2023-05-09T12:23:09.710Z,17.72
2023-05-09T12:25:36.237Z,18.28
2023-05-09T12:28:03.402Z,17.98
2023-05-09T12:30:30.260Z,18.08
2023-05-09T12:32:57.414Z,17.70
2023-05-09T12:35:24.069Z,17.69
2023-05-09T12:37:58.429Z,17.23
2023-05-09T12:40:25.466Z,17.26
2023-05-09T12:42:54.293Z,17.19
2023-05-09T12:45:21.051Z,17.39
2023-05-09T12:47:52.155Z,17.25
2023-05-09T12:50:19.221Z,17.14
2023-05-09T12:53:02.583Z,17.03
2023-05-09T12:55:31.597Z,17.03
2023-05-09T12:58:00.712Z,17.28
2023-05-09T13:00:27.761Z,17.31
2023-05-09T13:02:54.548Z,17.44
2023-05-09T13:05:23.103Z,17.52
2023-05-09T13:07:52.281Z,17.46
2023-05-09T13:10:27.529Z,17.36
2023-05-09T13:12:54.685Z,17.58
2023-05-09T13:15:23.134Z,17.46
2023-05-09T13:17:51.613Z,16.90
2023-05-09T13:20:19.054Z,17.19
2023-05-09T13:22:46.488Z,17.23
2023-05-09T13:25:13.119Z,17.02
2023-05-09T13:27:39.727Z,16.80
2023-05-09T13:30:09.614Z,17.05
2023-05-09T13:32:38.968Z,16.60
2023-05-09T13:35:07.933Z,16.75
2023-05-09T13:37:35.118Z,16.49
2023-05-09T13:40:02.426Z,16.45
2023-05-09T13:42:29.009Z,16.49
2023-05-09T13:44:55.597Z,16.49
2023-05-09T13:47:22.255Z,16.00
2023-05-09T13:49:48.840Z,16.44
2023-05-09T13:52:16.382Z,16.72
2023-05-09T13:54:43.160Z,16.69
2023-05-09T13:57:09.869Z,16.78
2023-05-09T13:59:36.862Z,16.73
2023-05-09T14:02:03.762Z,16.86
2023-05-09T14:04:34.345Z,16.38
2023-05-09T14:07:01.398Z,16.34
2023-05-09T14:09:28.791Z,16.58
2023-05-09T14:11:56.656Z,16.53
2023-05-09T14:14:24.858Z,16.48
2023-05-09T14:16:52.034Z,15.84
2023-05-09T14:19:18.761Z,16.71
2023-05-09T14:21:48.760Z,16.71
2023-05-09T14:24:16.449Z,16.76
2023-05-09T14:26:43.722Z,17.00
2023-05-09T14:29:10.825Z,17.08
2023-05-09T14:31:37.578Z,17.12
2023-05-09T14:34:05.241Z,17.33
2023-05-09T14:36:35.471Z,17.41
2023-05-09T14:39:02.360Z,17.39
2023-05-09T14:41:28.938Z,17.49
2023-05-09T14:43:55.604Z,17.44
2023-05-09T14:46:24.742Z,17.07
2023-05-09T14:48:52.598Z,17.23
2023-05-09T14:51:19.247Z,17.22
2023-05-09T14:53:46.080Z,17.29
2023-05-09T14:56:13.133Z,17.28
2023-05-09T14:58:39.831Z,17.14
2023-05-09T15:01:06.526Z,17.14
2023-05-09T15:03:33.215Z,17.12
2023-05-09T15:05:59.805Z,16.75
2023-05-09T15:08:27.032Z,17.08
2023-05-09T15:10:53.638Z,17.33
2023-05-09T15:13:20.822Z,17.30
2023-05-09T15:15:47.757Z,16.95
2023-05-09T15:18:16.462Z,16.60
2023-05-09T15:20:43.341Z,17.32
2023-05-09T15:23:11.267Z,17.33
2023-05-09T15:25:37.935Z,17.25
2023-05-09T15:28:04.507Z,17.18
2023-05-09T15:30:31.154Z,17.01
2023-05-09T15:32:59.148Z,16.48
2023-05-09T15:35:27.210Z,16.84
2023-05-09T15:37:54.596Z,16.69
2023-05-09T15:40:21.123Z,16.63
2023-05-09T15:42:48.275Z,16.60
2023-05-09T15:45:15.669Z,16.64
2023-05-09T15:47:42.460Z,16.60
2023-05-09T15:50:09.340Z,16.56
2023-05-09T15:52:35.887Z,16.62
2023-05-09T15:55:03.406Z,16.50
2023-05-09T15:57:30.209Z,16.24
2023-05-09T15:59:56.810Z,16.65
2023-05-09T16:02:23.969Z,16.60
2023-05-09T16:04:50.765Z,16.62
2023-05-09T16:07:19.464Z,16.48
2023-05-09T16:09:46.341Z,16.13
2023-05-09T16:12:13.723Z,16.53
2023-05-09T16:14:40.241Z,16.51
2023-05-09T16:17:06.916Z,16.64
2023-05-09T16:19:35.934Z,16.39
2023-05-09T16:22:02.789Z,16.53
2023-05-09T16:24:29.541Z,16.52
2023-05-09T16:26:56.191Z,16.47
2023-05-09T16:29:23.013Z,16.53
2023-05-09T16:31:49.741Z,16.67
2023-05-09T16:34:16.399Z,16.49
2023-05-09T16:36:44.089Z,16.51
2023-05-09T16:39:10.802Z,16.56
2023-05-09T16:41:37.367Z,16.58
2023-05-09T16:44:04.107Z,16.55
2023-05-09T16:46:30.662Z,16.75
2023-05-09T16:48:57.289Z,16.73
2023-05-09T16:51:23.936Z,16.72
2023-05-09T16:53:50.533Z,16.55
2023-05-09T16:56:17.201Z,16.41
2023-05-09T16:58:44.842Z,16.49
2023-05-09T17:01:11.705Z,16.47
2023-05-09T17:03:38.810Z,16.32
2023-05-09T17:06:05.783Z,16.46
2023-05-09T17:08:32.450Z,16.37
2023-05-09T17:10:59.096Z,16.31
2023-05-09T17:13:26.089Z,16.12
2023-05-09T17:15:52.834Z,16.30
2023-05-09T17:18:33.121Z,16.28
2023-05-09T17:21:03.978Z,16.18
2023-05-09T17:23:30.602Z,16.31
2023-05-09T17:25:57.264Z,16.27
2023-05-09T17:28:23.828Z,16.31
2023-05-09T17:30:50.630Z,16.17
2023-05-09T17:33:17.379Z,16.28
2023-05-09T17:35:43.988Z,16.14
2023-05-09T17:38:10.606Z,15.61
2023-05-09T17:40:38.311Z,15.67
2023-05-09T17:43:04.956Z,16.15
2023-05-09T17:45:32.769Z,16.11
2023-05-09T17:48:01.356Z,16.07
2023-05-09T17:50:28.162Z,16.06
2023-05-09T17:52:56.859Z,16.00
2023-05-09T17:55:23.626Z,15.67
2023-05-09T17:57:50.335Z,16.02
2023-05-09T18:00:17.477Z,15.96
2023-05-09T18:02:45.193Z,16.00
2023-05-09T18:05:11.957Z,16.12
2023-05-09T18:07:39.906Z,15.81
2023-05-09T18:10:07.849Z,15.93
2023-05-09T18:12:37.230Z,15.98
2023-05-09T18:15:04.879Z,15.92
2023-05-09T18:17:31.591Z,15.81
2023-05-09T18:19:58.360Z,15.69
2023-05-09T18:22:25.093Z,15.10
2023-05-09T18:24:52.682Z,15.52
2023-05-09T18:27:19.199Z,15.31
2023-05-09T18:29:47.256Z,15.32
2023-05-09T18:32:14.067Z,15.26
2023-05-09T18:34:41.613Z,14.92
2023-05-09T18:37:09.352Z,15.12
2023-05-09T18:39:36.468Z,15.18
2023-05-09T18:42:03.107Z,14.86
2023-05-09T18:44:29.919Z,15.00
2023-05-09T18:46:57.953Z,15.13
2023-05-09T18:49:27.474Z,14.73
2023-05-09T18:51:54.965Z,14.85
2023-05-09T18:54:21.595Z,15.02
2023-05-09T18:56:49.344Z,14.96
2023-05-09T18:59:17.108Z,14.97
2023-05-09T19:01:44.097Z,14.71
2023-05-09T19:04:11.212Z,14.89
2023-05-09T19:06:37.842Z,14.93
2023-05-09T19:09:04.774Z,14.83
2023-05-09T19:11:31.615Z,14.86
2023-05-09T19:13:58.326Z,14.72
2023-05-09T19:16:26.482Z,14.61
2023-05-09T19:19:00.777Z,14.74
2023-05-09T19:21:28.290Z,14.69
2023-05-09T19:23:54.906Z,14.74
2023-05-09T19:26:21.981Z,14.62
2023-05-09T19:28:48.711Z,14.68
2023-05-09T19:31:16.213Z,14.20
2023-05-09T19:33:45.433Z,14.49
2023-05-09T19:36:12.713Z,14.47
2023-05-09T19:38:39.540Z,14.45
2023-05-09T19:41:06.168Z,14.47
2023-05-09T19:43:32.782Z,14.46
2023-05-09T19:45:59.977Z,14.44
2023-05-09T19:48:28.757Z,14.36
2023-05-09T19:50:58.489Z,14.57
2023-05-09T19:53:25.483Z,14.33
2023-05-09T19:55:52.461Z,14.39
2023-05-09T19:58:19.958Z,14.52
2023-05-09T20:00:46.610Z,14.37
2023-05-09T20:03:13.411Z,14.35
2023-05-09T20:05:43.245Z,13.94
2023-05-09T20:08:09.961Z,14.45
2023-05-09T20:10:36.811Z,14.46
2023-05-09T20:13:04.376Z,14.30
2023-05-09T20:15:31.328Z,14.02
2023-05-09T20:17:58.463Z,14.32
2023-05-09T20:20:25.330Z,14.30
2023-05-09T20:22:51.984Z,14.31
2023-05-09T20:25:18.635Z,14.27
2023-05-09T20:27:45.340Z,14.36
2023-05-09T20:30:12.256Z,14.34
2023-05-09T20:32:38.917Z,14.42
2023-05-09T20:35:06.267Z,14.48
2023-05-09T20:37:32.903Z,14.46
2023-05-09T20:40:01.234Z,14.26
2023-05-09T20:42:27.868Z,14.41
2023-05-09T20:44:54.760Z,14.46
2023-05-09T20:47:21.634Z,14.46
2023-05-09T20:49:48.203Z,14.47
2023-05-09T20:52:14.964Z,14.27
2023-05-09T20:54:42.819Z,13.59
2023-05-09T20:57:09.417Z,14.42
2023-05-09T20:59:35.948Z,14.44
2023-05-09T21:02:02.771Z,14.26
2023-05-09T21:04:29.453Z,14.38
2023-05-09T21:06:56.172Z,14.30
2023-05-09T21:09:22.777Z,14.23
2023-05-09T21:11:49.353Z,14.43
2023-05-09T21:14:16.930Z,14.27
2023-05-09T21:16:43.962Z,14.48
2023-05-09T21:19:10.824Z,14.58
2023-05-09T21:21:38.490Z,14.05
2023-05-09T21:24:08.977Z,14.42
2023-05-09T21:26:36.366Z,14.48
2023-05-09T21:29:03.424Z,14.24
2023-05-09T21:31:30.057Z,14.17
2023-05-09T21:33:58.345Z,14.07
2023-05-09T21:36:26.502Z,14.09
2023-05-09T21:38:53.610Z,13.81
2023-05-09T21:41:21.839Z,13.79
2023-05-09T21:43:48.497Z,13.30
2023-05-09T21:46:15.161Z,13.69
2023-05-09T21:48:41.772Z,13.76
2023-05-09T21:51:08.562Z,13.74
2023-05-09T21:53:35.245Z,13.43
2023-05-09T21:56:02.188Z,13.39
2023-05-09T21:58:28.677Z,13.66
2023-05-09T22:00:55.251Z,13.50
2023-05-09T22:03:21.948Z,13.61
2023-05-09T22:05:48.524Z,13.72
2023-05-09T22:08:15.055Z,13.62
2023-05-09T22:10:41.829Z,13.74
2023-05-09T22:13:08.803Z,13.79
2023-05-09T22:15:35.408Z,13.57
2023-05-09T22:18:02.056Z,13.68
2023-05-09T22:20:28.735Z,13.35
2023-05-09T22:22:55.340Z,13.76
2023-05-09T22:25:21.980Z,13.33
2023-05-09T22:27:49.656Z,13.32
2023-05-09T22:30:16.810Z,13.68
2023-05-09T22:32:43.746Z,13.40
2023-05-09T22:35:10.455Z,13.74
2023-05-09T22:37:37.150Z,13.19
2023-05-09T22:40:05.087Z,13.77
2023-05-09T22:42:31.739Z,13.66
2023-05-09T22:44:58.615Z,13.64
2023-05-09T22:47:25.132Z,13.59
2023-05-09T22:49:51.893Z,13.69
2023-05-09T22:52:18.657Z,13.74
2023-05-09T22:54:45.315Z,13.72
2023-05-09T22:57:12.000Z,13.77
2023-05-09T22:59:38.678Z,13.74
2023-05-09T23:02:05.850Z,13.77
2023-05-09T23:04:32.486Z,13.76
2023-05-09T23:06:59.111Z,13.85
2023-05-09T23:09:25.936Z,13.79
2023-05-09T23:11:54.848Z,13.81
2023-05-09T23:14:21.813Z,13.89
2023-05-09T23:16:49.171Z,13.67
2023-05-09T23:19:16.623Z,13.45
2023-05-09T23:21:44.252Z,13.90
2023-05-09T23:24:10.900Z,13.86
2023-05-09T23:26:37.546Z,13.89
2023-05-09T23:29:04.214Z,13.87
2023-05-09T23:31:30.889Z,13.86
2023-05-09T23:33:58.520Z,13.82
2023-05-09T23:36:25.364Z,14.04
2023-05-09T23:38:51.961Z,13.91
2023-05-09T23:41:20.986Z,13.84
2023-05-09T23:43:47.945Z,13.90
2023-05-09T23:46:14.547Z,13.88
2023-05-09T23:48:41.522Z,14.03
2023-05-09T23:51:08.112Z,13.80
2023-05-09T23:53:35.483Z,14.23
2023-05-09T23:56:02.789Z,14.15
2023-05-09T23:58:29.454Z,14.22
